createdAt,value
2023-04-09T00:01:13.304Z,67.74
2023-04-09T00:03:45.202Z,67.45
2023-04-09T00:06:17.251Z,67.70
2023-04-09T00:08:50.180Z,68.16
2023-04-09T00:11:22.532Z,68.86
2023-04-09T00:13:54.573Z,68.03
2023-04-09T00:16:26.364Z,68.40
2023-04-09T00:18:58.154Z,68.70
2023-04-09T00:21:29.983Z,68.73
2023-04-09T00:24:01.618Z,68.33
2023-04-09T00:26:33.518Z,68.38
2023-04-09T00:29:05.300Z,68.47
2023-04-09T00:31:37.074Z,68.27
2023-04-09T00:34:08.868Z,68.06
2023-04-09T00:36:42.078Z,68.25
2023-04-09T00:39:13.869Z,68.41
2023-04-09T00:41:45.728Z,67.75
2023-04-09T00:44:17.803Z,68.17
2023-04-09T00:46:49.607Z,68.33
2023-04-09T00:49:22.538Z,68.27
2023-04-09T00:51:54.695Z,68.03
2023-04-09T00:54:27.668Z,68.40
2023-04-09T00:56:59.841Z,68.27
2023-04-09T00:59:32.665Z,67.88
2023-04-09T01:02:04.652Z,68.26
2023-04-09T01:04:38.168Z,67.76
2023-04-09T01:07:32.052Z,66.94
2023-04-09T01:10:28.464Z,68.66
2023-04-09T01:13:09.705Z,68.24
2023-04-09T01:15:52.206Z,68.72
2023-04-09T01:18:30.954Z,67.81
2023-04-09T01:21:26.051Z,68.40
2023-04-09T01:24:16.724Z,68.18
2023-04-09T01:26:58.299Z,68.87
2023-04-09T01:29:51.546Z,67.97
2023-04-09T01:32:29.866Z,67.83
2023-04-09T01:35:06.506Z,68.23
2023-04-09T01:37:40.646Z,67.45
2023-04-09T01:40:12.847Z,68.94
2023-04-09T01:42:48.086Z,67.87
2023-04-09T01:45:20.961Z,66.83
2023-04-09T01:47:55.468Z,68.40
2023-04-09T01:50:27.361Z,68.64
2023-04-09T01:53:01.302Z,68.62
2023-04-09T01:55:33.531Z,68.20
2023-04-09T01:58:05.781Z,68.04
2023-04-09T02:00:48.176Z,68.68
2023-04-09T02:03:46.480Z,67.51
2023-04-09T02:06:44.355Z,68.86
2023-04-09T02:09:20.400Z,67.95
2023-04-09T02:11:56.481Z,68.45
2023-04-09T02:14:32.369Z,68.40
2023-04-09T02:17:05.272Z,68.55
2023-04-09T02:19:44.006Z,68.80
2023-04-09T02:22:17.205Z,69.99
2023-04-09T02:24:50.534Z,68.82
2023-04-09T02:27:23.740Z,68.64
2023-04-09T02:29:56.452Z,68.12
2023-04-09T02:32:30.213Z,69.37
2023-04-09T02:35:13.146Z,69.95
2023-04-09T02:37:46.265Z,69.57
2023-04-09T02:40:18.982Z,69.07
2023-04-09T02:42:54.737Z,69.77
2023-04-09T02:45:27.487Z,69.85
2023-04-09T02:47:59.213Z,68.75
2023-04-09T02:50:31.066Z,69.00
2023-04-09T02:53:02.894Z,68.90
2023-04-09T02:55:34.673Z,67.85
2023-04-09T02:58:06.536Z,67.70
2023-04-09T03:00:38.264Z,66.99
2023-04-09T03:03:10.411Z,68.98
2023-04-09T03:05:42.280Z,68.78
2023-04-09T03:08:15.053Z,68.25
2023-04-09T03:10:47.720Z,70.00
2023-04-09T03:13:19.568Z,69.05
2023-04-09T03:15:52.567Z,69.51
2023-04-09T03:18:24.584Z,69.07
2023-04-09T03:20:56.737Z,69.35
2023-04-09T03:23:29.329Z,70.26
2023-04-09T03:26:02.445Z,69.71
2023-04-09T03:28:38.843Z,70.04
2023-04-09T03:31:10.593Z,70.16
2023-04-09T03:33:44.924Z,68.89
2023-04-09T03:36:17.288Z,68.77
2023-04-09T03:39:02.153Z,68.35
2023-04-09T03:41:37.602Z,68.97
2023-04-09T03:44:14.211Z,68.81
2023-04-09T03:47:11.984Z,68.99
2023-04-09T03:49:44.311Z,68.98
2023-04-09T03:52:25.113Z,67.32
2023-04-09T03:55:04.969Z,70.01
2023-04-09T03:57:36.854Z,68.57
2023-04-09T04:00:12.582Z,68.91
2023-04-09T04:02:56.676Z,69.39
2023-04-09T04:05:48.554Z,70.37
2023-04-09T04:08:22.346Z,71.75
2023-04-09T04:10:54.171Z,70.90
2023-04-09T04:13:27.380Z,70.37
2023-04-09T04:16:02.324Z,71.26
2023-04-09T04:18:35.266Z,70.19
2023-04-09T04:21:13.956Z,70.29
2023-04-09T04:23:50.020Z,69.10
2023-04-09T04:26:25.617Z,70.46
2023-04-09T04:28:57.510Z,70.30
2023-04-09T04:31:41.653Z,69.64
2023-04-09T04:34:14.084Z,71.18
2023-04-09T04:36:48.328Z,71.08
2023-04-09T04:39:20.435Z,70.76
2023-04-09T04:42:06.594Z,69.71
2023-04-09T04:44:38.599Z,70.62
2023-04-09T04:47:30.510Z,71.20
2023-04-09T04:50:03.795Z,71.53
2023-04-09T04:52:43.805Z,71.43
2023-04-09T04:55:16.742Z,70.94
2023-04-09T04:57:51.295Z,68.75
2023-04-09T05:00:24.728Z,69.21
2023-04-09T05:02:57.043Z,69.62
2023-04-09T05:05:39.442Z,69.37
2023-04-09T05:08:11.847Z,70.14
2023-04-09T05:10:43.907Z,69.13
2023-04-09T05:13:16.609Z,70.29
2023-04-09T05:15:48.210Z,68.32
2023-04-09T05:18:21.156Z,68.68
2023-04-09T05:20:52.956Z,67.49
2023-04-09T05:23:25.144Z,68.98
2023-04-09T05:25:56.960Z,68.15
2023-04-09T05:28:37.556Z,68.75
2023-04-09T05:31:18.579Z,68.58
2023-04-09T05:33:58.061Z,67.53
2023-04-09T05:36:39.039Z,67.18
2023-04-09T05:39:10.804Z,68.07
2023-04-09T05:41:42.555Z,67.61
2023-04-09T05:44:23.177Z,62.68
2023-04-09T05:46:58.148Z,61.33
2023-04-09T05:49:36.760Z,60.60
2023-04-09T05:52:15.639Z,60.62
2023-04-09T05:54:47.297Z,59.17
2023-04-09T05:57:23.514Z,58.16
2023-04-09T06:00:02.083Z,58.11
2023-04-09T06:02:34.089Z,57.76
2023-04-09T06:05:06.193Z,58.38
2023-04-09T06:07:37.978Z,56.62
2023-04-09T06:10:09.622Z,55.53
2023-04-09T06:12:41.370Z,54.28
2023-04-09T06:15:14.163Z,53.27
2023-04-09T06:17:46.753Z,52.55
2023-04-09T06:20:18.772Z,49.31
2023-04-09T06:22:50.736Z,49.94
2023-04-09T06:25:22.690Z,49.88
2023-04-09T06:27:54.549Z,49.33
2023-04-09T06:30:26.296Z,48.54
2023-04-09T06:32:58.180Z,47.70
2023-04-09T06:35:29.951Z,45.47
2023-04-09T06:38:02.055Z,47.33
2023-04-09T06:40:33.924Z,50.11
2023-04-09T06:43:06.526Z,52.99
2023-04-09T06:45:46.781Z,55.21
2023-04-09T06:48:18.639Z,55.94
2023-04-09T06:50:50.566Z,57.45
2023-04-09T06:53:22.654Z,58.02
2023-04-09T06:55:56.657Z,58.20
2023-04-09T06:58:29.018Z,59.36
2023-04-09T07:01:01.124Z,59.99
2023-04-09T07:03:33.488Z,59.37
2023-04-09T07:06:05.725Z,60.40
2023-04-09T07:08:37.631Z,59.59
2023-04-09T07:11:09.925Z,58.90
2023-04-09T07:13:41.892Z,56.42
2023-04-09T07:16:13.710Z,57.33
2023-04-09T07:18:45.507Z,57.34
2023-04-09T07:21:17.519Z,58.68
2023-04-09T07:23:49.878Z,56.61
2023-04-09T07:26:21.941Z,57.67
2023-04-09T07:28:53.637Z,57.54
2023-04-09T07:31:25.643Z,56.53
2023-04-09T07:33:57.312Z,56.60
2023-04-09T07:36:29.270Z,55.38
2023-04-09T07:39:01.192Z,54.34
2023-04-09T07:41:34.344Z,53.67
2023-04-09T07:44:06.346Z,53.34
2023-04-09T07:46:38.811Z,53.25
2023-04-09T07:49:11.122Z,53.65
2023-04-09T07:51:43.681Z,52.78
2023-04-09T07:54:15.665Z,52.44
2023-04-09T07:56:48.928Z,53.53
2023-04-09T07:59:20.814Z,54.22
2023-04-09T08:01:53.964Z,52.13
2023-04-09T08:04:27.953Z,51.17
2023-04-09T08:07:00.740Z,51.15
2023-04-09T08:09:32.573Z,51.84
2023-04-09T08:12:04.470Z,52.69
2023-04-09T08:14:36.172Z,52.88
2023-04-09T08:17:07.815Z,52.26
2023-04-09T08:19:41.754Z,53.54
2023-04-09T08:22:13.987Z,55.22
2023-04-09T08:24:51.455Z,53.52
2023-04-09T08:27:23.182Z,52.00
2023-04-09T08:29:54.937Z,53.60
2023-04-09T08:32:26.839Z,52.06
2023-04-09T08:34:58.623Z,50.67
2023-04-09T08:37:30.438Z,49.28
2023-04-09T08:40:02.146Z,47.25
2023-04-09T08:42:36.114Z,47.04
2023-04-09T08:45:08.763Z,48.17
2023-04-09T08:47:47.259Z,47.61
2023-04-09T08:50:20.080Z,45.80
2023-04-09T08:52:53.116Z,45.98
2023-04-09T08:55:25.140Z,47.32
2023-04-09T08:57:57.171Z,45.94
2023-04-09T09:00:28.825Z,45.12
2023-04-09T09:03:05.518Z,46.60
2023-04-09T09:05:45.240Z,46.54
2023-04-09T09:08:25.283Z,46.24
2023-04-09T09:10:56.962Z,47.45
2023-04-09T09:13:28.917Z,48.04
2023-04-09T09:16:14.003Z,47.66
2023-04-09T09:18:45.926Z,44.70
2023-04-09T09:21:18.472Z,46.52
2023-04-09T09:23:50.168Z,44.78
2023-04-09T09:26:24.767Z,45.61
2023-04-09T09:28:57.960Z,45.52
2023-04-09T09:31:29.922Z,44.83
2023-04-09T09:34:08.969Z,45.11
2023-04-09T09:36:41.483Z,43.99
2023-04-09T09:39:15.385Z,43.41
2023-04-09T09:41:48.120Z,43.81
2023-04-09T09:44:33.327Z,43.94
2023-04-09T09:47:06.234Z,42.71
2023-04-09T09:49:38.104Z,43.19
2023-04-09T09:52:11.582Z,42.63
2023-04-09T09:54:50.839Z,42.07
2023-04-09T09:57:27.597Z,42.12
2023-04-09T10:00:02.652Z,42.49
2023-04-09T10:02:51.582Z,42.45
2023-04-09T10:05:24.145Z,42.78
2023-04-09T10:07:58.098Z,45.52
2023-04-09T10:10:33.152Z,43.03
2023-04-09T10:13:07.553Z,43.20
2023-04-09T10:15:40.273Z,40.59
2023-04-09T10:18:12.851Z,38.68
2023-04-09T10:21:09.417Z,38.71
2023-04-09T10:23:44.847Z,38.34
2023-04-09T10:26:19.573Z,40.20
2023-04-09T10:29:04.977Z,41.23
2023-04-09T10:32:06.152Z,41.46
2023-04-09T10:34:43.429Z,42.13
2023-04-09T10:37:21.981Z,41.59
2023-04-09T10:39:54.522Z,41.10
2023-04-09T10:42:35.359Z,42.60
2023-04-09T10:45:13.281Z,40.01
2023-04-09T10:47:50.521Z,40.63
2023-04-09T10:50:26.703Z,39.93
2023-04-09T10:52:58.905Z,39.01
2023-04-09T10:55:30.483Z,40.91
2023-04-09T10:58:04.060Z,40.80
2023-04-09T11:00:41.821Z,42.37
2023-04-09T11:03:21.900Z,44.06
2023-04-09T11:05:58.375Z,43.56
2023-04-09T11:08:32.525Z,42.66
2023-04-09T11:11:04.672Z,43.28
2023-04-09T11:13:36.425Z,42.59
2023-04-09T11:16:08.169Z,39.72
2023-04-09T11:18:41.123Z,39.49
2023-04-09T11:21:12.953Z,38.67
2023-04-09T11:23:52.320Z,39.68
2023-04-09T11:26:36.331Z,43.99
2023-04-09T11:29:08.404Z,45.61
2023-04-09T11:31:44.842Z,45.12
2023-04-09T11:34:16.674Z,46.39
2023-04-09T11:36:51.372Z,44.82
2023-04-09T11:39:23.434Z,45.65
2023-04-09T11:41:55.352Z,43.73
2023-04-09T11:44:27.003Z,46.99
2023-04-09T11:47:00.139Z,46.35
2023-04-09T11:49:32.064Z,47.11
2023-04-09T11:52:04.699Z,47.89
2023-04-09T11:54:36.690Z,46.54
2023-04-09T11:57:08.495Z,47.42
2023-04-09T11:59:40.386Z,46.27
2023-04-09T12:02:12.296Z,47.45
2023-04-09T12:04:52.193Z,46.29
2023-04-09T12:07:32.520Z,48.04
2023-04-09T12:10:06.627Z,48.15
2023-04-09T12:12:48.042Z,47.01
2023-04-09T12:15:20.960Z,47.90
2023-04-09T12:17:56.061Z,48.06
2023-04-09T12:20:41.393Z,45.19
2023-04-09T12:23:15.646Z,44.62
2023-04-09T12:25:47.335Z,45.48
2023-04-09T12:28:19.384Z,45.05
2023-04-09T12:30:51.543Z,42.98
2023-04-09T12:33:23.520Z,42.79
2023-04-09T12:35:55.350Z,45.49
2023-04-09T12:38:27.378Z,46.14
2023-04-09T12:41:00.215Z,46.97
2023-04-09T12:43:32.212Z,47.48
2023-04-09T12:46:04.349Z,46.25
2023-04-09T12:48:36.734Z,45.05
2023-04-09T12:51:09.057Z,47.14
2023-04-09T12:53:42.255Z,46.37
2023-04-09T12:56:13.998Z,46.38
2023-04-09T12:58:46.033Z,46.95
2023-04-09T13:01:18.094Z,45.41
2023-04-09T13:03:51.112Z,47.01
2023-04-09T13:06:23.159Z,47.22
2023-04-09T13:08:55.137Z,47.25
2023-04-09T13:11:27.224Z,47.39
2023-04-09T13:13:59.142Z,47.33
2023-04-09T13:16:30.960Z,48.34
2023-04-09T13:19:03.397Z,46.38
2023-04-09T13:21:36.131Z,48.19
2023-04-09T13:24:08.341Z,46.73
2023-04-09T13:26:40.922Z,47.50
2023-04-09T13:29:13.678Z,46.84
2023-04-09T13:31:45.763Z,47.25
2023-04-09T13:34:17.468Z,46.31
2023-04-09T13:36:49.505Z,50.07
2023-04-09T13:39:21.277Z,48.94
2023-04-09T13:41:52.993Z,47.01
2023-04-09T13:44:25.306Z,46.74
2023-04-09T13:46:57.045Z,45.09
2023-04-09T13:49:28.900Z,46.69
2023-04-09T13:52:01.089Z,43.83
2023-04-09T13:54:33.836Z,45.73
2023-04-09T13:57:05.556Z,46.57
2023-04-09T13:59:37.590Z,45.35
2023-04-09T14:02:09.555Z,45.71
2023-04-09T14:04:41.383Z,45.21
2023-04-09T14:07:13.205Z,45.08
2023-04-09T14:09:44.888Z,46.28
2023-04-09T14:12:17.338Z,45.88
2023-04-09T14:14:49.119Z,45.80
2023-04-09T14:17:20.750Z,46.13
2023-04-09T14:19:52.446Z,44.18
2023-04-09T14:22:24.926Z,44.62
2023-04-09T14:24:56.623Z,43.51
2023-04-09T14:27:28.695Z,44.56
2023-04-09T14:30:00.496Z,46.00
2023-04-09T14:32:32.326Z,44.44
2023-04-09T14:35:04.696Z,45.38
2023-04-09T14:37:36.376Z,45.04
2023-04-09T14:40:08.928Z,44.10
2023-04-09T14:42:41.653Z,43.26
2023-04-09T14:45:13.619Z,43.84
2023-04-09T14:47:45.482Z,44.77
2023-04-09T14:50:17.398Z,44.36
2023-04-09T14:52:50.164Z,43.92
2023-04-09T14:55:22.233Z,42.96
2023-04-09T14:57:54.899Z,43.48
2023-04-09T15:00:26.652Z,40.29
2023-04-09T15:02:58.470Z,38.53
2023-04-09T15:05:30.644Z,39.17
2023-04-09T15:08:02.736Z,39.02
2023-04-09T15:10:36.724Z,39.29
2023-04-09T15:13:08.538Z,38.90
2023-04-09T15:15:41.009Z,36.87
2023-04-09T15:18:13.522Z,33.56
2023-04-09T15:20:45.936Z,32.01
2023-04-09T15:23:18.429Z,31.28
2023-04-09T15:25:52.101Z,29.08
2023-04-09T15:28:24.434Z,26.64
2023-04-09T15:30:56.803Z,26.12
2023-04-09T15:33:28.823Z,27.93
2023-04-09T15:36:01.273Z,24.56
2023-04-09T15:38:42.309Z,24.88
2023-04-09T15:41:14.190Z,24.89
2023-04-09T15:43:46.050Z,24.24
2023-04-09T15:46:19.349Z,24.42
2023-04-09T15:48:51.677Z,22.70
2023-04-09T15:51:23.998Z,23.81
2023-04-09T15:53:55.849Z,24.62
2023-04-09T15:56:28.407Z,22.83
2023-04-09T15:59:00.373Z,24.41
2023-04-09T16:01:32.683Z,23.14
2023-04-09T16:04:05.090Z,24.14
2023-04-09T16:06:38.295Z,25.91
2023-04-09T16:09:10.048Z,26.00
2023-04-09T16:11:42.121Z,26.78
2023-04-09T16:14:14.085Z,30.51
2023-04-09T16:16:45.899Z,29.90
2023-04-09T16:19:17.778Z,31.04
2023-04-09T16:21:49.488Z,32.60
2023-04-09T16:24:21.132Z,34.45
2023-04-09T16:26:53.217Z,34.66
2023-04-09T16:29:25.001Z,36.50
2023-04-09T16:31:57.035Z,36.73
2023-04-09T16:34:28.795Z,36.73
2023-04-09T16:37:00.489Z,37.18
2023-04-09T16:39:32.379Z,38.60
2023-04-09T16:42:04.362Z,37.96
2023-04-09T16:44:35.998Z,38.74
2023-04-09T16:47:07.693Z,38.45
2023-04-09T16:49:39.407Z,39.13
2023-04-09T16:52:11.221Z,39.72
2023-04-09T16:54:43.001Z,39.49
2023-04-09T16:57:15.309Z,39.31
2023-04-09T16:59:47.096Z,39.66
2023-04-09T17:02:18.992Z,39.12
2023-04-09T17:04:50.964Z,39.62
2023-04-09T17:07:23.104Z,39.72
2023-04-09T17:09:54.950Z,39.61
2023-04-09T17:12:26.910Z,40.49
2023-04-09T17:14:58.625Z,41.23
2023-04-09T17:17:30.463Z,40.88
2023-04-09T17:20:02.243Z,40.42
2023-04-09T17:22:34.179Z,41.38
2023-04-09T17:25:06.306Z,41.53
2023-04-09T17:27:38.333Z,42.44
2023-04-09T17:30:10.355Z,40.78
2023-04-09T17:32:42.100Z,42.28
2023-04-09T17:35:13.793Z,43.22
2023-04-09T17:37:45.896Z,43.53
2023-04-09T17:40:18.452Z,43.86
2023-04-09T17:42:51.019Z,44.37
2023-04-09T17:45:23.105Z,44.24
2023-04-09T17:47:55.177Z,44.70
2023-04-09T17:50:27.199Z,45.98
2023-04-09T17:52:59.224Z,46.42
2023-04-09T17:55:31.639Z,46.12
2023-04-09T17:58:03.815Z,46.35
2023-04-09T18:00:36.252Z,46.53
2023-04-09T18:03:08.551Z,46.29
2023-04-09T18:05:41.164Z,46.79
2023-04-09T18:08:13.678Z,47.62
2023-04-09T18:10:45.613Z,48.02
2023-04-09T18:13:17.576Z,48.20
2023-04-09T18:15:49.390Z,48.15
2023-04-09T18:18:21.756Z,48.40
2023-04-09T18:20:53.389Z,48.67
2023-04-09T18:23:25.331Z,49.12
2023-04-09T18:25:57.272Z,49.22
2023-04-09T18:28:29.368Z,49.22
2023-04-09T18:31:01.187Z,50.36
2023-04-09T18:33:33.202Z,50.82
2023-04-09T18:36:05.545Z,50.92
2023-04-09T18:38:37.444Z,51.07
2023-04-09T18:41:10.139Z,52.35
2023-04-09T18:43:42.794Z,51.67
2023-04-09T18:46:14.672Z,51.02
2023-04-09T18:48:46.417Z,51.65
2023-04-09T18:51:20.290Z,52.71
2023-04-09T18:53:53.223Z,52.57
2023-04-09T18:56:26.710Z,53.73
2023-04-09T18:58:59.611Z,51.46
2023-04-09T19:01:31.829Z,52.71
2023-04-09T19:04:07.025Z,52.14
2023-04-09T19:06:39.750Z,52.48
2023-04-09T19:09:12.244Z,51.80
2023-04-09T19:11:45.381Z,51.73
2023-04-09T19:14:19.218Z,52.21
2023-04-09T19:16:54.552Z,52.25
2023-04-09T19:19:26.445Z,52.79
2023-04-09T19:21:59.033Z,52.34
2023-04-09T19:24:30.972Z,52.23
2023-04-09T19:27:03.399Z,51.52
2023-04-09T19:29:35.984Z,52.18
2023-04-09T19:32:08.368Z,51.91
2023-04-09T19:34:41.539Z,52.49
2023-04-09T19:37:13.563Z,52.90
2023-04-09T19:39:46.427Z,52.86
2023-04-09T19:42:19.652Z,53.89
2023-04-09T19:44:53.012Z,53.17
2023-04-09T19:47:27.635Z,52.80
2023-04-09T19:50:00.753Z,53.63
2023-04-09T19:52:33.488Z,54.38
2023-04-09T19:55:06.567Z,54.46
2023-04-09T19:57:39.040Z,53.77
2023-04-09T20:00:12.168Z,54.32
2023-04-09T20:02:44.146Z,54.52
2023-04-09T20:05:16.952Z,53.29
2023-04-09T20:07:51.920Z,54.17
2023-04-09T20:10:23.982Z,53.88
2023-04-09T20:12:56.995Z,54.21
2023-04-09T20:15:29.098Z,54.75
2023-04-09T20:18:02.577Z,54.61
2023-04-09T20:20:34.803Z,55.03
2023-04-09T20:23:07.524Z,54.88
2023-04-09T20:25:40.831Z,53.61
2023-04-09T20:28:16.544Z,55.26
2023-04-09T20:30:49.449Z,54.36
2023-04-09T20:33:24.132Z,53.89
2023-04-09T20:35:56.356Z,54.36
2023-04-09T20:38:30.355Z,54.08
2023-04-09T20:41:02.814Z,54.17
2023-04-09T20:43:36.457Z,54.33
2023-04-09T20:46:09.453Z,55.08
2023-04-09T20:48:43.407Z,55.61
2023-04-09T20:51:15.835Z,54.82
2023-04-09T20:53:48.660Z,54.75
2023-04-09T20:56:23.807Z,55.27
2023-04-09T20:58:56.817Z,55.14
2023-04-09T21:01:29.744Z,54.58
2023-04-09T21:04:03.142Z,53.85
2023-04-09T21:06:35.594Z,54.84
2023-04-09T21:09:08.681Z,55.33
2023-04-09T21:11:42.542Z,55.17
2023-04-09T21:14:17.308Z,55.89
2023-04-09T21:16:50.379Z,56.03
2023-04-09T21:19:24.379Z,54.95
2023-04-09T21:22:01.219Z,55.36
2023-04-09T21:24:38.677Z,54.71
2023-04-09T21:27:12.343Z,55.78
2023-04-09T21:29:45.596Z,55.75
2023-04-09T21:32:19.094Z,55.87
2023-04-09T21:34:52.252Z,55.06
2023-04-09T21:37:27.700Z,55.41
2023-04-09T21:40:19.453Z,54.89
2023-04-09T21:43:10.982Z,55.23
2023-04-09T21:46:02.544Z,55.57
2023-04-09T21:48:54.345Z,54.49
2023-04-09T21:51:46.344Z,54.19
2023-04-09T21:54:37.859Z,54.89
2023-04-09T21:57:29.659Z,55.60
2023-04-09T22:00:21.239Z,54.79
2023-04-09T22:03:13.081Z,54.62
2023-04-09T22:06:05.035Z,55.67
2023-04-09T22:08:57.764Z,54.56
2023-04-09T22:11:49.844Z,54.75
2023-04-09T22:14:41.956Z,55.52
2023-04-09T22:17:33.691Z,55.22
2023-04-09T22:20:25.457Z,54.35
2023-04-09T22:23:17.030Z,54.68
2023-04-09T22:26:08.738Z,54.38
2023-04-09T22:29:00.312Z,54.35
2023-04-09T22:31:52.337Z,53.92
2023-04-09T22:34:43.878Z,53.80
2023-04-09T22:37:35.464Z,54.68
2023-04-09T22:40:27.019Z,54.42
2023-04-09T22:43:18.649Z,54.12
2023-04-09T22:46:10.271Z,54.34
2023-04-09T22:49:05.090Z,53.10
2023-04-09T22:51:57.263Z,54.41
2023-04-09T22:54:48.795Z,54.75
2023-04-09T22:57:40.352Z,54.34
2023-04-09T23:00:12.589Z,53.90
2023-04-09T23:02:46.899Z,54.14
2023-04-09T23:05:19.912Z,52.59
2023-04-09T23:07:53.808Z,54.68
2023-04-09T23:10:25.791Z,54.02
2023-04-09T23:12:58.032Z,54.52
2023-04-09T23:15:29.667Z,53.57
2023-04-09T23:18:02.028Z,53.35
2023-04-09T23:20:34.876Z,53.84
2023-04-09T23:23:06.496Z,53.96
2023-04-09T23:25:38.078Z,53.90
2023-04-09T23:28:10.292Z,53.45
2023-04-09T23:30:47.068Z,53.71
2023-04-09T23:33:20.084Z,53.24
2023-04-09T23:35:53.173Z,54.68
2023-04-09T23:38:29.687Z,54.57
2023-04-09T23:41:04.849Z,53.71
2023-04-09T23:43:43.492Z,53.16
2023-04-09T23:46:15.995Z,53.16
2023-04-09T23:48:47.811Z,53.24
2023-04-09T23:51:21.855Z,53.13
2023-04-09T23:53:54.071Z,53.26
2023-04-09T23:56:25.941Z,54.54
2023-04-09T23:58:57.499Z,53.97
